Terminal Aerodrome Forecast
Issued by NWS

Home | Current Version | Previous Version | Text Only | Print | Product List | Glossary On
Versions: 1 2 3 4 5 6 7 8 9 10 11 12 13
000
FTUS45 KREV 082346
TAFTVL
TAF
KTVL 082346Z 0900/0924 19018G30KT P6SM VCSH SCT025 BKN040
     FM090400 19011G20KT P6SM VCSH SCT020 OVC035
     FM092200 19015G28KT P6SM BKN030 BKN050 WS020/25050KT=

USA.gov is the U.S. government's official web portal to all federal, state and local government web resources and services.